CheckWX is a tool to help pilots better visualize weather data.  It is not intended as a substitute for an official pre-flight weather briefing.

05:42:54 UTC

KAQW METAR
Harriman-And-West Airport
North Adams, Massachusetts, USA
Current

51 mins ago

KAQW 200452Z AUTO 25007KT 10SM CLR M12/M16 A3055 RMK AO2 SLP358 T11171156 410441156
Observed
Feb-20 @ 04:52 UTC
Wind
  • 250° at 7 KTS
Visibility
16,093 meters
Flight Rules
VFR
Cloud Levels
  • Clear skies
Temperature
-12°C / 10°F
Dewpoint
-16°C / 3°F
Humidity
72%
Altimeter
30.55" Hg
Pressure
1035.8 hPa
Previous

2 hours ago

KAQW 200352Z AUTO 30003KT 10SM CLR M10/M15 A3056 RMK AO2 SLP363 T11001150
Observed
Feb-20 @ 03:52 UTC
Wind
  • 300° at 3 KTS
Visibility
16,093 meters
Flight Rules
VFR
Cloud Levels
  • Clear skies
Temperature
-10°C / 14°F
Dewpoint
-15°C / 5°F
Humidity
67%
Altimeter
30.56" Hg
Pressure
1036.3 hPa
Previous

3 hours ago

KAQW 200252Z AUTO 28008KT 10SM CLR M08/M14 A3056 RMK AO2 SLP364 T10831144 50006
Observed
Feb-20 @ 02:52 UTC
Wind
  • 280° at 8 KTS
Visibility
16,093 meters
Flight Rules
VFR
Cloud Levels
  • Clear skies
Temperature
-8°C / 18°F
Dewpoint
-14°C / 7°F
Humidity
62%
Altimeter
30.56" Hg
Pressure
1036.4 hPa